Wappingers Falls, NY (12590)

9:55 PM EDT on April 21, 2015 (GMT -0400)
Wappingers Falls | | Change Station
CLOSE
Current Station
Personal Weather Station
Location: Wappingers Fallls, NY
Elevation: 338 ft
Nearby Weather Stations

Elev 338 ft 41.61 °N, 73.86 °W | Updated 25 seconds ago

Clear
Clear
48.7 °F
Feels Like 49 °F
N
1.6
Wind Variable Wind from South
Gusts 2.7 mph

Today
High -- | Low -- °F
--% Chance of Precip.
Yesterday
High -- | Low -- °F
Precip. -- in
6:06 AM 7:42 PM
Waxing Crescent, 14% visible
Pressure 29.72 in
Visibility 10.0 miles
Clouds Clear
Windchill 49 °F
Dew Point 27 °F
Humidity 42%
Rainfall 0.21 in
Snow Depth Not available.
UV 0.0 out of 12
Pollen 6.00 out of 12
Air Quality Not available.
Flu Activity Widespread
METAR KPOU 220053Z AUTO 00000KT 10SM CLR 14/M03 A2973 RMK AO2 SLP063 T01391028

More Conditions Fewer Conditions

Pressure 29.72 in
Visibility 10.0 miles
Clouds Clear
Windchill 49 °F
Dew Point 27 °F
Humidity 42%
Rainfall 0.21 in
Snow Depth Not available.
UV 0.0 out of 12
Pollen 6.00 out of 12
Air Quality Not available.
Flu Activity Widespread
METAR KPOU 220053Z AUTO 00000KT 10SM CLR 14/M03 A2973 RMK AO2 SLP063 T01391028

More Conditions Fewer Conditions

10-Day Weather Forecast

Almanac

Astronomy

Apr. 21, 2015 Rise Set
Actual Time
Civil Twilight
Nautical Twilight
Astronomical Twilight
Moon
Length of Visible Light
Length of Day
Tomorrow will be .
, % of the Moon is Illuminated

Today's Extremes

State Highs State Lows

Community

WunderPhotos

Upload Photos

1,815,623 photos uploaded!

WunderBlogs® & News

Nearby

Air Quality

  Air Quality AQ Index Pollutant
Not available.

Snow Depth

Station Depth Elevation

Earthquake Activity

City Distance Mag. Time & Date
Minimum magnitude displayed is 2.5.

Coastal Water Temperatures

Place Temperature

Stations

Nearby Weather Stations

Station Location Temp. Windchill Dew Point Humidity Wind Precip. Elev Updated Type